createdAt,value
2024-01-05T00:00:06.166Z,0.92
2024-01-05T00:01:06.114Z,0.92
2024-01-05T00:02:06.103Z,0.91
2024-01-05T00:03:06.189Z,0.93
2024-01-05T00:04:06.178Z,0.92
2024-01-05T00:05:06.109Z,0.93
2024-01-05T00:06:06.194Z,0.92
2024-01-05T00:07:06.133Z,0.90
2024-01-05T00:08:06.116Z,0.88
2024-01-05T00:09:06.159Z,0.92
2024-01-05T00:10:06.110Z,0.89
2024-01-05T00:11:06.131Z,0.89
2024-01-05T00:12:07.415Z,0.89
2024-01-05T00:13:06.113Z,0.88
2024-01-05T00:14:06.121Z,0.88
2024-01-05T00:15:06.171Z,0.90
2024-01-05T00:16:06.116Z,0.91
2024-01-05T00:17:06.114Z,0.89
2024-01-05T00:18:06.220Z,0.90
2024-01-05T00:19:06.349Z,0.88
2024-01-05T00:20:06.262Z,0.90
2024-01-05T00:21:06.199Z,0.90
2024-01-05T00:22:06.194Z,0.90
2024-01-05T00:23:06.192Z,0.90
2024-01-05T00:24:06.245Z,0.88
2024-01-05T00:25:06.205Z,0.87
2024-01-05T00:26:06.198Z,0.91
2024-01-05T00:27:06.223Z,0.87
2024-01-05T00:28:06.196Z,0.88
2024-01-05T00:29:06.218Z,0.88
2024-01-05T00:30:06.410Z,0.88
2024-01-05T00:31:06.468Z,0.88
2024-01-05T00:32:06.211Z,0.88
2024-01-05T00:33:06.305Z,0.88
2024-01-05T00:34:06.385Z,0.89
2024-01-05T00:35:06.230Z,0.88
2024-01-05T00:36:06.251Z,0.91
2024-01-05T00:37:06.229Z,0.89
2024-01-05T00:38:06.243Z,0.88
2024-01-05T00:39:06.330Z,0.88
2024-01-05T00:40:06.245Z,0.89
2024-01-05T00:41:06.265Z,0.86
2024-01-05T00:42:06.318Z,0.88
2024-01-05T00:43:06.255Z,0.89
2024-01-05T00:44:06.279Z,0.88
2024-01-05T00:45:06.286Z,0.89
2024-01-05T00:46:06.258Z,0.85
2024-01-05T00:47:06.264Z,0.87
2024-01-05T00:48:06.348Z,0.87
2024-01-05T00:49:06.374Z,0.86
2024-01-05T00:50:06.272Z,0.86
2024-01-05T00:51:06.287Z,0.87
2024-01-05T00:52:06.290Z,0.87
2024-01-05T00:53:06.291Z,0.88
2024-01-05T00:54:06.320Z,0.87
2024-01-05T00:55:06.349Z,0.87
2024-01-05T00:56:06.430Z,0.86
2024-01-05T00:57:07.904Z,0.86
2024-01-05T00:58:06.476Z,0.86
2024-01-05T00:59:06.463Z,0.87
2024-01-05T01:00:06.513Z,0.88
2024-01-05T01:01:06.513Z,0.87
2024-01-05T01:02:06.472Z,0.87
2024-01-05T01:03:06.576Z,0.85
2024-01-05T01:04:06.592Z,0.86
2024-01-05T01:05:06.520Z,0.86
2024-01-05T01:06:06.508Z,0.86
2024-01-05T01:07:06.456Z,0.86
2024-01-05T01:08:06.473Z,0.87
2024-01-05T01:09:06.524Z,0.87
2024-01-05T01:10:06.479Z,0.87
2024-01-05T01:11:06.489Z,0.86
2024-01-05T01:12:06.558Z,0.88
2024-01-05T01:13:06.496Z,0.87
2024-01-05T01:14:06.485Z,0.89
2024-01-05T01:15:06.505Z,0.87
2024-01-05T01:16:06.504Z,0.87
2024-01-05T01:17:06.493Z,0.87
2024-01-05T01:18:06.642Z,0.87
2024-01-05T01:19:06.774Z,0.87
2024-01-05T01:20:06.523Z,0.88
2024-01-05T01:21:06.568Z,0.87
2024-01-05T01:22:06.511Z,0.87
2024-01-05T01:23:06.505Z,0.88
2024-01-05T01:24:06.562Z,0.86
2024-01-05T01:25:06.514Z,0.87
2024-01-05T01:26:06.512Z,0.87
2024-01-05T01:27:06.576Z,0.85
2024-01-05T01:28:06.511Z,0.87
2024-01-05T01:29:06.501Z,0.86
2024-01-05T01:30:06.623Z,0.86
2024-01-05T01:31:06.695Z,0.87
2024-01-05T01:32:06.522Z,0.87
2024-01-05T01:33:06.616Z,0.87
2024-01-05T01:34:06.618Z,0.85
2024-01-05T01:35:06.543Z,0.86
2024-01-05T01:36:06.568Z,0.86
2024-01-05T01:37:06.517Z,0.86
2024-01-05T01:38:06.532Z,0.85
2024-01-05T01:39:06.606Z,0.87
2024-01-05T01:40:06.629Z,0.86
2024-01-05T01:41:06.574Z,0.84
2024-01-05T01:42:06.624Z,0.87
2024-01-05T01:43:06.612Z,0.86
2024-01-05T01:44:06.565Z,0.86
2024-01-05T01:45:06.570Z,0.84
2024-01-05T01:46:06.582Z,0.84
2024-01-05T01:47:06.555Z,0.85
2024-01-05T01:48:06.825Z,0.85
2024-01-05T01:49:06.722Z,0.82
2024-01-05T01:50:06.612Z,0.85
2024-01-05T01:51:06.647Z,0.85
2024-01-05T01:52:06.609Z,0.85
2024-01-05T01:53:06.608Z,0.84
2024-01-05T01:54:06.683Z,0.84
2024-01-05T01:55:06.637Z,0.84
2024-01-05T01:56:06.651Z,0.86
2024-01-05T01:57:06.636Z,0.82
2024-01-05T01:58:06.618Z,0.81
2024-01-05T01:59:06.639Z,0.83
2024-01-05T02:00:06.727Z,0.85
2024-01-05T02:01:06.691Z,0.85
2024-01-05T02:02:06.628Z,0.83
2024-01-05T02:03:06.844Z,0.85
2024-01-05T02:04:06.743Z,0.85
2024-01-05T02:05:06.700Z,0.85
2024-01-05T02:06:06.784Z,0.84
2024-01-05T02:07:06.659Z,0.80
2024-01-05T02:08:06.645Z,0.84
2024-01-05T02:09:06.702Z,0.82
2024-01-05T02:10:06.643Z,0.82
2024-01-05T02:11:06.653Z,0.84
2024-01-05T02:12:06.701Z,0.84
2024-01-05T02:13:06.637Z,0.84
2024-01-05T02:14:06.644Z,0.84
2024-01-05T02:15:06.679Z,0.83
2024-01-05T02:16:06.679Z,0.83
2024-01-05T02:17:06.656Z,0.84
2024-01-05T02:18:06.733Z,0.83
2024-01-05T02:19:06.754Z,0.84
2024-01-05T02:20:06.653Z,0.83
2024-01-05T02:21:06.688Z,0.83
2024-01-05T02:22:06.663Z,0.83
2024-01-05T02:23:06.669Z,0.83
2024-01-05T02:24:06.734Z,0.83
2024-01-05T02:25:06.659Z,0.83
2024-01-05T02:26:06.733Z,0.81
2024-01-05T02:27:06.694Z,0.83
2024-01-05T02:28:06.671Z,0.83
2024-01-05T02:29:06.702Z,0.83
2024-01-05T02:30:06.733Z,0.84
2024-01-05T02:31:06.783Z,0.81
2024-01-05T02:32:06.680Z,0.81
2024-01-05T02:33:06.813Z,0.82
2024-01-05T02:34:06.756Z,0.82
2024-01-05T02:35:06.775Z,0.81
2024-01-05T02:36:06.710Z,0.81
2024-01-05T02:37:06.693Z,0.81
2024-01-05T02:38:06.696Z,0.83
2024-01-05T02:39:06.736Z,0.82
2024-01-05T02:40:06.700Z,0.82
2024-01-05T02:41:06.703Z,0.81
2024-01-05T02:42:06.728Z,0.82
2024-01-05T02:43:06.710Z,0.80
2024-01-05T02:44:06.703Z,0.81
2024-01-05T02:45:06.716Z,0.81
2024-01-05T02:46:06.747Z,0.81
2024-01-05T02:47:06.714Z,0.81
2024-01-05T02:48:06.916Z,0.82
2024-01-05T02:49:06.856Z,0.83
2024-01-05T02:50:06.705Z,0.81
2024-01-05T02:51:06.792Z,0.81
2024-01-05T02:52:06.713Z,0.79
2024-01-05T02:53:06.718Z,0.80
2024-01-05T02:54:06.779Z,0.81
2024-01-05T02:55:06.717Z,0.78
2024-01-05T02:56:06.717Z,0.78
2024-01-05T02:57:06.762Z,0.79
2024-01-05T02:58:06.723Z,0.79
2024-01-05T02:59:06.708Z,0.79
2024-01-05T03:00:06.738Z,0.80
2024-01-05T03:01:06.778Z,0.81
2024-01-05T03:02:06.716Z,0.80
2024-01-05T03:03:07.009Z,0.80
2024-01-05T03:04:06.832Z,0.81
2024-01-05T03:05:06.742Z,0.81
2024-01-05T03:06:06.737Z,0.80
2024-01-05T03:07:06.724Z,0.81
2024-01-05T03:08:06.729Z,0.81
2024-01-05T03:09:06.784Z,0.79
2024-01-05T03:10:06.757Z,0.80
2024-01-05T03:11:06.736Z,0.80
2024-01-05T03:12:06.859Z,0.79
2024-01-05T03:13:06.735Z,0.80
2024-01-05T03:14:06.737Z,0.79
2024-01-05T03:15:06.822Z,0.78
2024-01-05T03:16:06.751Z,0.79
2024-01-05T03:17:06.742Z,0.82
2024-01-05T03:18:06.963Z,0.84
2024-01-05T03:19:06.906Z,0.89
2024-01-05T03:20:06.803Z,0.89
2024-01-05T03:21:06.780Z,0.89
2024-01-05T03:22:06.760Z,0.89
2024-01-05T03:23:06.768Z,0.89
2024-01-05T03:24:06.847Z,0.88
2024-01-05T03:25:06.777Z,0.87
2024-01-05T03:26:06.771Z,0.86
2024-01-05T03:27:06.786Z,0.83
2024-01-05T03:28:06.771Z,0.84
2024-01-05T03:29:06.778Z,0.84
2024-01-05T03:30:06.895Z,0.80
2024-01-05T03:31:06.842Z,0.79
2024-01-05T03:32:06.801Z,0.77
2024-01-05T03:33:06.902Z,0.75
2024-01-05T03:34:06.952Z,0.73
2024-01-05T03:35:06.784Z,0.70
2024-01-05T03:36:06.899Z,0.69
2024-01-05T03:37:06.800Z,0.69
2024-01-05T03:38:06.784Z,0.68
2024-01-05T03:39:06.845Z,0.67
2024-01-05T03:40:06.784Z,0.67
2024-01-05T03:41:06.821Z,0.66
2024-01-05T03:42:06.897Z,0.65
2024-01-05T03:43:06.872Z,0.63
2024-01-05T03:44:06.914Z,0.62
2024-01-05T03:45:06.964Z,0.61
2024-01-05T03:46:06.916Z,0.60
2024-01-05T03:47:06.916Z,0.58
2024-01-05T03:48:06.994Z,0.57
2024-01-05T03:49:06.990Z,0.56
2024-01-05T03:50:06.920Z,0.55
2024-01-05T03:51:06.956Z,0.55
2024-01-05T03:52:06.925Z,0.56
2024-01-05T03:53:06.933Z,0.56
2024-01-05T03:54:06.958Z,0.56
2024-01-05T03:55:06.919Z,0.56
2024-01-05T03:56:06.944Z,0.54
2024-01-05T03:57:06.957Z,0.54
2024-01-05T03:58:06.914Z,0.54
2024-01-05T03:59:06.941Z,0.54
2024-01-05T04:00:06.987Z,0.54
2024-01-05T04:01:06.987Z,0.53
2024-01-05T04:02:06.944Z,0.52
2024-01-05T04:03:07.061Z,0.52
2024-01-05T04:04:07.045Z,0.51
2024-01-05T04:05:06.969Z,0.50
2024-01-05T04:06:07.040Z,0.51
2024-01-05T04:07:07.010Z,0.50
2024-01-05T04:08:07.033Z,0.51
2024-01-05T04:09:07.107Z,0.50
2024-01-05T04:10:07.096Z,0.51
2024-01-05T04:11:07.154Z,0.51
2024-01-05T04:12:07.193Z,0.50
2024-01-05T04:13:07.126Z,0.49
2024-01-05T04:14:07.207Z,0.50
2024-01-05T04:15:07.167Z,0.48
2024-01-05T04:16:07.145Z,0.49
2024-01-05T04:17:07.148Z,0.51
2024-01-05T04:18:07.314Z,0.50
2024-01-05T04:19:07.301Z,0.49
2024-01-05T04:20:07.164Z,0.50
2024-01-05T04:21:07.247Z,0.50
2024-01-05T04:22:14.415Z,0.50
2024-01-05T04:23:14.407Z,0.50
2024-01-05T04:24:14.430Z,0.50
2024-01-05T04:25:14.413Z,0.50
2024-01-05T04:26:14.421Z,0.50
2024-01-05T04:27:14.436Z,0.51
2024-01-05T04:28:14.416Z,0.51
2024-01-05T04:29:14.421Z,0.50
2024-01-05T04:30:14.543Z,0.51
2024-01-05T04:31:21.883Z,0.50
2024-01-05T04:32:21.786Z,0.50
2024-01-05T04:33:21.957Z,0.50
2024-01-05T04:34:21.835Z,0.50
2024-01-05T04:35:21.786Z,0.50
2024-01-05T04:36:21.955Z,0.50
2024-01-05T04:37:21.795Z,0.50
2024-01-05T04:38:21.801Z,0.50
2024-01-05T04:39:21.813Z,0.50
2024-01-05T04:40:21.810Z,0.50
2024-01-05T04:41:21.801Z,0.50
2024-01-05T04:42:21.810Z,0.49
2024-01-05T04:43:21.800Z,0.49
2024-01-05T04:44:21.808Z,0.49
2024-01-05T04:45:21.856Z,0.49
2024-01-05T04:46:21.804Z,0.48
2024-01-05T04:47:21.826Z,0.50
2024-01-05T04:48:21.924Z,0.51
2024-01-05T04:49:21.872Z,0.51
2024-01-05T04:50:21.824Z,0.51
2024-01-05T04:51:21.855Z,0.51
2024-01-05T04:52:21.819Z,0.51
2024-01-05T04:53:21.816Z,0.51
2024-01-05T04:54:21.897Z,0.52
2024-01-05T04:55:21.823Z,0.51
2024-01-05T04:56:21.823Z,0.51
2024-01-05T04:57:21.884Z,0.50
2024-01-05T04:58:21.850Z,0.50
2024-01-05T04:59:21.862Z,0.51
2024-01-05T05:00:21.973Z,0.51
2024-01-05T05:01:22.048Z,0.51
2024-01-05T05:02:22.070Z,0.52
2024-01-05T05:03:22.216Z,0.52
2024-01-05T05:04:22.192Z,0.51
2024-01-05T05:05:22.294Z,0.51
2024-01-05T05:06:22.403Z,0.50
2024-01-05T05:07:22.361Z,0.51
2024-01-05T05:08:22.373Z,0.50
2024-01-05T05:09:22.418Z,0.50
2024-01-05T05:10:22.384Z,0.51
2024-01-05T05:11:22.651Z,0.50
2024-01-05T05:12:22.417Z,0.51
2024-01-05T05:13:22.378Z,0.50
2024-01-05T05:14:22.378Z,0.52
2024-01-05T05:15:22.467Z,0.52
2024-01-05T05:16:22.765Z,0.52
2024-01-05T05:17:22.517Z,0.52
2024-01-05T05:18:22.456Z,0.51
2024-01-05T05:19:22.522Z,0.52
2024-01-05T05:20:22.414Z,0.52
2024-01-05T05:21:23.035Z,0.52
2024-01-05T05:22:22.461Z,0.51
2024-01-05T05:23:22.399Z,0.51
2024-01-05T05:24:22.428Z,0.51
2024-01-05T05:25:22.422Z,0.51
2024-01-05T05:26:22.883Z,0.50
2024-01-05T05:27:22.416Z,0.51
2024-01-05T05:28:22.412Z,0.50
2024-01-05T05:29:22.406Z,0.51
2024-01-05T05:30:22.516Z,0.52
2024-01-05T05:31:22.860Z,0.51
2024-01-05T05:32:22.450Z,0.51
2024-01-05T05:33:22.515Z,0.51
2024-01-05T05:34:22.558Z,0.51
2024-01-05T05:35:22.414Z,0.51
2024-01-05T05:36:22.446Z,0.51
2024-01-05T05:37:22.512Z,0.51
2024-01-05T05:38:22.418Z,0.51
2024-01-05T05:39:22.457Z,0.51
2024-01-05T05:40:22.426Z,0.50
2024-01-05T05:41:22.431Z,0.52
2024-01-05T05:42:22.429Z,0.52
2024-01-05T05:43:22.430Z,0.51
2024-01-05T05:44:22.428Z,0.51
2024-01-05T05:45:22.495Z,0.51
2024-01-05T05:46:23.337Z,0.51
2024-01-05T05:47:22.533Z,0.51
2024-01-05T05:48:22.732Z,0.51
2024-01-05T05:49:22.676Z,0.53
2024-01-05T05:50:22.633Z,0.51
2024-01-05T05:51:24.398Z,0.52
2024-01-05T05:52:22.758Z,0.52
2024-01-05T05:53:22.820Z,0.52
2024-01-05T05:54:22.897Z,0.52
2024-01-05T05:55:22.960Z,0.52
2024-01-05T05:56:23.061Z,0.51
2024-01-05T05:57:23.239Z,0.51
2024-01-05T05:58:23.144Z,0.51
2024-01-05T05:59:23.057Z,0.51
2024-01-05T06:00:23.088Z,0.51
2024-01-05T06:01:23.100Z,0.52
2024-01-05T06:02:23.077Z,0.53
2024-01-05T06:03:23.140Z,0.53
2024-01-05T06:04:23.092Z,0.53
2024-01-05T06:05:23.135Z,0.52
2024-01-05T06:06:23.297Z,0.53
2024-01-05T06:07:23.067Z,0.52
2024-01-05T06:08:23.071Z,0.52
2024-01-05T06:09:23.111Z,0.53
2024-01-05T06:10:23.079Z,0.52
2024-01-05T06:11:25.221Z,0.52
2024-01-05T06:12:23.120Z,0.52
2024-01-05T06:13:23.085Z,0.53
2024-01-05T06:14:23.095Z,0.53
2024-01-05T06:15:23.127Z,0.52
2024-01-05T06:16:23.100Z,0.53
2024-01-05T06:17:23.089Z,0.53
2024-01-05T06:18:23.244Z,0.53
2024-01-05T06:19:23.150Z,0.53
2024-01-05T06:20:23.107Z,0.53
2024-01-05T06:21:23.169Z,0.53
2024-01-05T06:22:23.139Z,0.53
2024-01-05T06:23:23.113Z,0.53
2024-01-05T06:24:23.157Z,0.53
2024-01-05T06:25:23.122Z,0.53
2024-01-05T06:26:23.121Z,0.53
2024-01-05T06:27:32.558Z,0.53
2024-01-05T06:28:27.776Z,0.53
2024-01-05T06:29:23.129Z,0.53
2024-01-05T06:30:23.181Z,0.53
2024-01-05T06:31:23.189Z,0.53
2024-01-05T06:32:23.130Z,0.53
2024-01-05T06:33:23.260Z,0.54
2024-01-05T06:34:23.199Z,0.54
2024-01-05T06:35:23.151Z,0.53
2024-01-05T06:36:23.215Z,0.53
2024-01-05T06:37:23.159Z,0.53
2024-01-05T06:38:23.145Z,0.54
2024-01-05T06:39:23.237Z,0.54
2024-01-05T06:40:23.156Z,0.53
2024-01-05T06:41:23.152Z,0.54
2024-01-05T06:42:23.271Z,0.53
2024-01-05T06:43:23.169Z,0.53
2024-01-05T06:44:23.150Z,0.55
2024-01-05T06:45:23.169Z,0.54
2024-01-05T06:46:23.157Z,0.55
2024-01-05T06:47:23.154Z,0.53
2024-01-05T06:48:23.412Z,0.53
2024-01-05T06:49:23.287Z,0.53
2024-01-05T06:50:23.355Z,0.52
2024-01-05T06:51:23.175Z,0.53
2024-01-05T06:52:23.157Z,0.53
2024-01-05T06:53:23.166Z,0.53
2024-01-05T06:54:23.204Z,0.53
2024-01-05T06:55:23.173Z,0.53
2024-01-05T06:56:23.186Z,0.53
2024-01-05T06:57:23.201Z,0.53
2024-01-05T06:58:23.183Z,0.53
2024-01-05T06:59:23.188Z,0.53
2024-01-05T07:00:23.190Z,0.53
2024-01-05T07:01:23.196Z,0.53
2024-01-05T07:02:23.181Z,0.52
2024-01-05T07:03:23.280Z,0.52
2024-01-05T07:04:23.197Z,0.52
2024-01-05T07:05:23.250Z,0.52
2024-01-05T07:06:23.229Z,0.53
2024-01-05T07:07:23.186Z,0.53
2024-01-05T07:08:23.193Z,0.52
2024-01-05T07:09:23.215Z,0.51
2024-01-05T07:10:23.203Z,0.52
2024-01-05T07:11:23.283Z,0.52
2024-01-05T07:12:23.245Z,0.52
2024-01-05T07:13:23.199Z,0.52
2024-01-05T07:14:23.204Z,0.53
2024-01-05T07:15:23.246Z,0.52
2024-01-05T07:16:23.218Z,0.52
2024-01-05T07:17:23.280Z,0.52
2024-01-05T07:18:23.322Z,0.51
2024-01-05T07:19:23.360Z,0.51
2024-01-05T07:20:23.216Z,0.52
2024-01-05T07:21:23.309Z,0.50
2024-01-05T07:22:23.215Z,0.51
2024-01-05T07:23:23.222Z,0.51
2024-01-05T07:24:23.244Z,0.51
2024-01-05T07:25:23.247Z,0.52
2024-01-05T07:26:23.240Z,0.51
2024-01-05T07:27:23.261Z,0.52
2024-01-05T07:28:23.250Z,0.51
2024-01-05T07:29:23.232Z,0.51
2024-01-05T07:30:23.497Z,0.52
2024-01-05T07:31:23.333Z,0.52
2024-01-05T07:32:23.250Z,0.52
2024-01-05T07:33:23.346Z,0.52
2024-01-05T07:34:23.415Z,0.52
2024-01-05T07:35:23.262Z,0.52
2024-01-05T07:36:23.269Z,0.53
2024-01-05T07:37:23.244Z,0.52
2024-01-05T07:38:23.246Z,0.52
2024-01-05T07:39:23.312Z,0.52
2024-01-05T07:40:23.255Z,0.52
2024-01-05T07:41:23.270Z,0.52
2024-01-05T07:42:23.313Z,0.52
2024-01-05T07:43:23.272Z,0.52
2024-01-05T07:44:23.262Z,0.52
2024-01-05T07:45:23.286Z,0.51
2024-01-05T07:46:23.705Z,0.50
2024-01-05T07:47:23.271Z,0.50
2024-01-05T07:48:23.406Z,0.50
2024-01-05T07:49:23.396Z,0.50
2024-01-05T07:50:23.293Z,0.50
2024-01-05T07:51:23.310Z,0.49
2024-01-05T07:52:23.280Z,0.50
2024-01-05T07:53:23.290Z,0.51
2024-01-05T07:54:23.329Z,0.51
2024-01-05T07:55:23.303Z,0.51
2024-01-05T07:56:23.298Z,0.51
2024-01-05T07:57:23.359Z,0.51
2024-01-05T07:58:23.303Z,0.52
2024-01-05T07:59:23.313Z,0.51
2024-01-05T08:00:23.336Z,0.52
2024-01-05T08:01:23.343Z,0.52
2024-01-05T08:02:23.305Z,0.52
2024-01-05T08:03:23.455Z,0.52
2024-01-05T08:04:23.358Z,0.51
2024-01-05T08:05:23.327Z,0.52
2024-01-05T08:06:23.416Z,0.52
2024-01-05T08:07:23.310Z,0.52
2024-01-05T08:08:23.307Z,0.52
2024-01-05T08:09:23.390Z,0.50
2024-01-05T08:10:23.313Z,0.51
2024-01-05T08:11:23.325Z,0.52
2024-01-05T08:12:23.376Z,0.50
2024-01-05T08:13:23.347Z,0.50
2024-01-05T08:14:23.315Z,0.51
2024-01-05T08:15:23.360Z,0.51
2024-01-05T08:16:23.323Z,0.51
2024-01-05T08:17:23.334Z,0.51
2024-01-05T08:18:23.414Z,0.51
2024-01-05T08:19:23.503Z,0.51
2024-01-05T08:20:23.341Z,0.52
2024-01-05T08:21:23.370Z,0.51
2024-01-05T08:22:23.322Z,0.50
2024-01-05T08:23:23.325Z,0.51
2024-01-05T08:24:23.356Z,0.52
2024-01-05T08:25:24.351Z,0.53
2024-01-05T08:26:23.368Z,0.53
2024-01-05T08:27:23.386Z,0.51
2024-01-05T08:28:23.331Z,0.51
2024-01-05T08:29:23.339Z,0.53
2024-01-05T08:30:23.434Z,0.50
2024-01-05T08:31:23.463Z,0.52
2024-01-05T08:32:23.412Z,0.51
2024-01-05T08:33:23.445Z,0.51
2024-01-05T08:34:23.432Z,0.53
2024-01-05T08:35:23.348Z,0.54
2024-01-05T08:36:23.483Z,0.54
2024-01-05T08:37:23.407Z,0.54
2024-01-05T08:38:23.425Z,0.54
2024-01-05T08:39:23.470Z,0.54
2024-01-05T08:40:23.483Z,0.53
2024-01-05T08:41:23.852Z,0.53
2024-01-05T08:42:23.618Z,0.53
2024-01-05T08:43:23.625Z,0.53
2024-01-05T08:44:23.634Z,0.53
2024-01-05T08:45:23.698Z,0.53
2024-01-05T08:52:23.667Z,0.53
2024-01-05T08:53:23.680Z,0.54
2024-01-05T08:54:23.699Z,0.56
2024-01-05T08:55:23.676Z,0.59
2024-01-05T08:56:25.517Z,0.60
2024-01-05T08:57:23.738Z,0.54
2024-01-05T08:58:23.683Z,0.54
2024-01-05T08:59:23.699Z,0.54
2024-01-05T09:00:23.745Z,0.55
2024-01-05T09:01:24.041Z,0.53
2024-01-05T09:02:23.711Z,0.54
2024-01-05T09:03:23.752Z,0.55
2024-01-05T09:04:23.732Z,0.55
2024-01-05T09:05:23.726Z,0.58
2024-01-05T09:06:23.815Z,0.56
2024-01-05T09:07:23.699Z,0.56
2024-01-05T09:08:23.691Z,0.55
2024-01-05T09:09:23.748Z,0.55
2024-01-05T09:10:23.734Z,0.54
2024-01-05T09:11:23.705Z,0.54
2024-01-05T09:12:23.757Z,0.54
2024-01-05T09:13:23.730Z,0.53
2024-01-05T09:14:23.703Z,0.53
2024-01-05T09:15:23.726Z,0.53
2024-01-05T09:16:23.720Z,0.53
2024-01-05T09:17:23.750Z,0.54
2024-01-05T09:18:23.876Z,0.57
2024-01-05T09:19:25.994Z,0.59
2024-01-05T09:20:23.708Z,0.62
2024-01-05T09:21:23.743Z,0.64
2024-01-05T09:22:23.723Z,0.68
2024-01-05T09:23:23.731Z,0.70
2024-01-05T09:24:23.749Z,0.72
2024-01-05T09:25:23.731Z,0.75
2024-01-05T09:26:23.740Z,0.78
2024-01-05T09:27:23.763Z,0.82
2024-01-05T09:28:23.723Z,0.85
2024-01-05T09:29:23.733Z,0.89
2024-01-05T09:30:23.786Z,0.93
2024-01-05T09:31:23.824Z,0.96
2024-01-05T09:32:23.814Z,0.93
2024-01-05T09:33:23.848Z,0.93
2024-01-05T09:34:23.807Z,0.94
2024-01-05T09:35:23.731Z,0.95
2024-01-05T09:36:23.815Z,0.98
2024-01-05T09:37:23.737Z,0.93
2024-01-05T09:38:23.755Z,0.95
2024-01-05T09:39:23.778Z,0.98
2024-01-05T09:40:23.753Z,1.04
2024-01-05T09:41:23.777Z,1.12
2024-01-05T09:42:23.772Z,1.13
2024-01-05T09:43:23.762Z,1.15
2024-01-05T09:44:23.754Z,1.17
2024-01-05T09:45:23.803Z,1.16
2024-01-05T09:46:23.779Z,1.17
2024-01-05T09:47:23.776Z,1.20
2024-01-05T09:48:30.234Z,1.24
2024-01-05T09:49:24.932Z,1.23
2024-01-05T09:50:23.884Z,1.23
2024-01-05T09:51:23.793Z,1.24
2024-01-05T09:52:23.765Z,1.25
2024-01-05T09:53:23.776Z,1.27
2024-01-05T09:54:23.798Z,1.29
2024-01-05T09:55:23.780Z,1.30
2024-01-05T09:56:23.803Z,1.38
2024-01-05T09:57:23.854Z,1.37
2024-01-05T09:58:23.766Z,1.34
2024-01-05T09:59:23.774Z,1.36
2024-01-05T10:00:23.830Z,1.38
2024-01-05T10:01:23.795Z,1.39
2024-01-05T10:02:23.811Z,1.37
2024-01-05T10:03:23.847Z,1.35
2024-01-05T10:04:23.852Z,1.35
2024-01-05T10:05:23.816Z,1.36
2024-01-05T10:06:23.838Z,1.36
2024-01-05T10:07:23.795Z,1.40
2024-01-05T10:08:23.799Z,1.40
2024-01-05T10:09:23.970Z,1.41
2024-01-05T10:10:23.805Z,1.43
2024-01-05T10:11:23.818Z,1.42
2024-01-05T10:12:23.843Z,1.44
2024-01-05T10:13:23.802Z,1.49
2024-01-05T10:14:23.807Z,1.44
2024-01-05T10:15:23.821Z,1.46
2024-01-05T10:16:23.833Z,1.51
2024-01-05T10:17:23.799Z,1.47
2024-01-05T10:18:26.000Z,1.51
2024-01-05T10:19:23.896Z,1.49
2024-01-05T10:20:23.807Z,1.47
2024-01-05T10:21:23.825Z,1.51
2024-01-05T10:22:23.817Z,1.52
2024-01-05T10:23:23.812Z,1.52
2024-01-05T10:24:24.653Z,1.53
2024-01-05T10:25:23.839Z,1.50
2024-01-05T10:26:23.828Z,1.49
2024-01-05T10:27:23.862Z,1.52
2024-01-05T10:28:23.826Z,1.52
2024-01-05T10:29:23.832Z,1.50
2024-01-05T10:30:23.906Z,1.52
2024-01-05T10:31:23.862Z,1.55
2024-01-05T10:32:23.817Z,1.55
2024-01-05T10:33:23.913Z,1.53
2024-01-05T10:34:23.890Z,1.56
2024-01-05T10:35:23.836Z,1.55
2024-01-05T10:36:23.911Z,1.58
2024-01-05T10:37:23.851Z,1.56
2024-01-05T10:38:23.851Z,1.54
2024-01-05T10:39:23.898Z,1.56
2024-01-05T10:40:23.836Z,1.57
2024-01-05T10:41:23.850Z,1.56
2024-01-05T10:42:24.126Z,1.56
2024-01-05T10:43:23.860Z,1.58
2024-01-05T10:44:23.861Z,1.57
2024-01-05T10:45:23.905Z,1.57
2024-01-05T10:46:23.877Z,1.58
2024-01-05T10:47:23.845Z,1.55
2024-01-05T10:48:23.990Z,1.55
2024-01-05T10:49:23.949Z,1.57
2024-01-05T10:50:23.881Z,1.57
2024-01-05T10:51:23.921Z,1.57
2024-01-05T10:52:23.877Z,1.54
2024-01-05T10:53:23.876Z,1.57
2024-01-05T10:54:23.921Z,1.56
2024-01-05T10:55:23.847Z,1.52
2024-01-05T10:56:23.862Z,1.58
2024-01-05T10:57:23.935Z,1.55
2024-01-05T10:58:23.874Z,1.56
2024-01-05T10:59:23.858Z,1.56
2024-01-05T11:00:23.943Z,1.58
2024-01-05T11:01:23.885Z,1.53
2024-01-05T11:02:23.922Z,1.52
2024-01-05T11:03:23.889Z,1.53
2024-01-05T11:04:23.939Z,1.53
2024-01-05T11:05:23.854Z,1.52
2024-01-05T11:06:23.946Z,1.53
2024-01-05T11:07:23.953Z,1.52
2024-01-05T11:08:23.877Z,1.54
2024-01-05T11:09:23.894Z,1.55
2024-01-05T11:10:23.855Z,1.51
2024-01-05T11:11:23.882Z,1.51
2024-01-05T11:12:23.907Z,1.50
2024-01-05T11:13:23.865Z,1.48
2024-01-05T11:14:23.893Z,1.50
2024-01-05T11:15:24.030Z,1.53
2024-01-05T11:16:23.889Z,1.49
2024-01-05T11:17:23.901Z,1.55
2024-01-05T11:18:24.009Z,1.51
2024-01-05T11:19:23.951Z,1.48
2024-01-05T11:20:23.886Z,1.50
2024-01-05T11:21:23.929Z,1.49
2024-01-05T11:22:23.889Z,1.48
2024-01-05T11:23:23.886Z,1.50
2024-01-05T11:24:23.903Z,1.50
2024-01-05T11:25:23.968Z,1.50
2024-01-05T11:26:23.909Z,1.48
2024-01-05T11:27:23.981Z,1.48
2024-01-05T11:28:23.893Z,1.48
2024-01-05T11:29:23.911Z,1.48
2024-01-05T11:30:24.141Z,1.50
2024-01-05T11:31:24.092Z,1.48
2024-01-05T11:32:23.962Z,1.48
2024-01-05T11:33:30.019Z,1.48
2024-01-05T11:34:24.083Z,1.48
2024-01-05T11:35:23.921Z,1.48
2024-01-05T11:36:23.953Z,1.49
2024-01-05T11:37:23.917Z,1.49
2024-01-05T11:38:23.938Z,1.48
2024-01-05T11:39:24.000Z,1.48
2024-01-05T11:40:23.937Z,1.48
2024-01-05T11:41:23.969Z,1.48
2024-01-05T11:42:23.966Z,1.49
2024-01-05T11:43:23.940Z,1.46
2024-01-05T11:44:23.936Z,1.44
2024-01-05T11:45:23.967Z,1.49
2024-01-05T11:46:26.136Z,1.49
2024-01-05T11:47:23.974Z,1.47
2024-01-05T11:48:24.045Z,1.49
2024-01-05T11:49:23.969Z,1.48
2024-01-05T11:50:23.939Z,1.47
2024-01-05T11:51:23.985Z,1.46
2024-01-05T11:52:24.352Z,1.42
2024-01-05T11:53:23.972Z,1.46
2024-01-05T11:54:24.004Z,1.45
2024-01-05T11:55:23.949Z,1.44
2024-01-05T11:56:24.007Z,1.44
2024-01-05T11:57:23.976Z,1.47
2024-01-05T11:58:23.947Z,1.43
2024-01-05T11:59:23.961Z,1.45
2024-01-05T12:00:24.023Z,1.45
2024-01-05T12:01:23.994Z,1.39
2024-01-05T12:02:23.975Z,1.40
2024-01-05T12:03:24.045Z,1.44
2024-01-05T12:04:24.063Z,1.44
2024-01-05T12:05:24.015Z,1.44
2024-01-05T12:06:24.009Z,1.41
2024-01-05T12:07:23.963Z,1.44
2024-01-05T12:08:23.966Z,1.44
2024-01-05T12:09:24.007Z,1.45
2024-01-05T12:10:23.991Z,1.43
2024-01-05T12:11:23.991Z,1.42
2024-01-05T12:12:24.012Z,1.41
2024-01-05T12:13:23.987Z,1.39
2024-01-05T12:14:23.996Z,1.42
2024-01-05T12:15:24.009Z,1.43
2024-01-05T12:16:24.039Z,1.41
2024-01-05T12:17:24.026Z,1.41
2024-01-05T12:18:31.286Z,1.44
2024-01-05T12:19:25.172Z,1.44
2024-01-05T12:20:24.130Z,1.42
2024-01-05T12:21:24.104Z,1.41
2024-01-05T12:22:24.004Z,1.41
2024-01-05T12:23:23.999Z,1.40
2024-01-05T12:24:24.041Z,1.43
2024-01-05T12:25:24.013Z,1.39
2024-01-05T12:26:24.107Z,1.42
2024-01-05T12:27:24.035Z,1.36
2024-01-05T12:28:24.046Z,1.36
2024-01-05T12:29:24.043Z,1.36
2024-01-05T12:30:24.071Z,1.36
2024-01-05T12:31:24.337Z,1.36
2024-01-05T12:32:24.018Z,1.37
2024-01-05T12:33:24.118Z,1.38
2024-01-05T12:34:24.089Z,1.41
2024-01-05T12:35:24.052Z,1.36
2024-01-05T12:36:24.049Z,1.36
2024-01-05T12:37:24.051Z,1.36
2024-01-05T12:38:24.032Z,1.37
2024-01-05T12:39:24.080Z,1.38
2024-01-05T12:40:24.046Z,1.38
2024-01-05T12:41:24.081Z,1.39
2024-01-05T12:42:24.073Z,1.38
2024-01-05T12:43:24.054Z,1.39
2024-01-05T12:44:24.057Z,1.33
2024-01-05T12:45:24.116Z,1.37
2024-01-05T12:46:24.498Z,1.35
2024-01-05T12:47:24.047Z,1.36
2024-01-05T12:48:24.178Z,1.37
2024-01-05T12:49:24.950Z,1.34
2024-01-05T12:50:24.078Z,1.33
2024-01-05T12:51:24.616Z,1.29
2024-01-05T12:52:24.146Z,1.27
2024-01-05T12:53:24.189Z,1.32
2024-01-05T12:54:24.292Z,1.33
2024-01-05T12:55:24.241Z,1.30
2024-01-05T12:56:24.272Z,1.32
2024-01-05T12:57:24.311Z,1.34
2024-01-05T12:58:24.254Z,1.31
2024-01-05T12:59:24.276Z,1.32
2024-01-05T13:00:24.297Z,1.30
2024-01-05T13:01:24.353Z,1.31
2024-01-05T13:02:24.282Z,1.35
2024-01-05T13:03:24.344Z,1.34
2024-01-05T13:04:24.316Z,1.34
2024-01-05T13:05:24.253Z,1.34
2024-01-05T13:06:24.436Z,1.32
2024-01-05T13:07:24.248Z,1.32
2024-01-05T13:08:24.256Z,1.31
2024-01-05T13:09:24.295Z,1.33
2024-01-05T13:10:24.291Z,1.31
2024-01-05T13:11:24.268Z,1.31
2024-01-05T13:12:24.277Z,1.29
2024-01-05T13:13:24.281Z,1.30
2024-01-05T13:14:24.258Z,1.30
2024-01-05T13:15:24.280Z,1.30
2024-01-05T13:16:24.284Z,1.28
2024-01-05T13:17:24.311Z,1.30
2024-01-05T13:18:24.386Z,1.31
2024-01-05T13:19:24.325Z,1.30
2024-01-05T13:20:24.311Z,1.31
2024-01-05T13:21:24.428Z,1.33
2024-01-05T13:22:24.276Z,1.31
2024-01-05T13:23:24.282Z,1.32
2024-01-05T13:24:24.314Z,1.33